sensor_id;sensor_type;location;lat;lon;timestamp;P1;durP1;ratioP1;P2;durP2;ratioP2
13366;SDS011;6752;52.612;13.630;2022-09-17T00:02:38;17.30;;;6.47;;
13366;SDS011;6752;52.612;13.630;2022-09-17T00:07:41;17.42;;;6.43;;
13366;SDS011;6752;52.612;13.630;2022-09-17T00:12:46;10.32;;;5.32;;
13366;SDS011;6752;52.612;13.630;2022-09-17T00:17:52;12.07;;;4.60;;
13366;SDS011;6752;52.612;13.630;2022-09-17T00:22:54;14.43;;;4.60;;
13366;SDS011;6752;52.612;13.630;2022-09-17T00:27:56;14.15;;;5.78;;
13366;SDS011;6752;52.612;13.630;2022-09-17T00:33:01;11.35;;;5.30;;
13366;SDS011;6752;52.612;13.630;2022-09-17T00:38:04;17.62;;;6.70;;
13366;SDS011;6752;52.612;13.630;2022-09-17T00:43:09;14.13;;;7.10;;
13366;SDS011;6752;52.612;13.630;2022-09-17T00:48:11;15.18;;;5.90;;
13366;SDS011;6752;52.612;13.630;2022-09-17T00:53:17;16.23;;;6.70;;
13366;SDS011;6752;52.612;13.630;2022-09-17T00:58:20;12.02;;;5.20;;
13366;SDS011;6752;52.612;13.630;2022-09-17T01:03:25;16.58;;;5.25;;
13366;SDS011;6752;52.612;13.630;2022-09-17T01:08:32;19.58;;;6.37;;
13366;SDS011;6752;52.612;13.630;2022-09-17T01:13:51;12.60;;;6.28;;
13366;SDS011;6752;52.612;13.630;2022-09-17T01:18:58;14.02;;;7.28;;
13366;SDS011;6752;52.612;13.630;2022-09-17T01:24:25;15.02;;;7.05;;
13366;SDS011;6752;52.612;13.630;2022-09-17T01:29:54;17.80;;;7.57;;
13366;SDS011;6752;52.612;13.630;2022-09-17T01:35:04;10.68;;;5.47;;
13366;SDS011;6752;52.612;13.630;2022-09-17T01:40:14;15.90;;;6.03;;
13366;SDS011;6752;52.612;13.630;2022-09-17T01:55:22;14.27;;;5.80;;
13366;SDS011;6752;52.612;13.630;2022-09-17T02:00:23;21.98;;;5.53;;
13366;SDS011;6752;52.612;13.630;2022-09-17T02:10:32;15.98;;;5.82;;
13366;SDS011;6752;52.612;13.630;2022-09-17T02:15:37;13.60;;;5.15;;
13366;SDS011;6752;52.612;13.630;2022-09-17T02:20:41;10.35;;;4.25;;
13366;SDS011;6752;52.612;13.630;2022-09-17T02:25:49;12.65;;;4.90;;
13366;SDS011;6752;52.612;13.630;2022-09-17T02:30:50;19.77;;;6.53;;
13366;SDS011;6752;52.612;13.630;2022-09-17T02:35:52;12.43;;;5.62;;
13366;SDS011;6752;52.612;13.630;2022-09-17T02:41:04;10.38;;;4.70;;
13366;SDS011;6752;52.612;13.630;2022-09-17T02:46:19;17.15;;;5.60;;
13366;SDS011;6752;52.612;13.630;2022-09-17T03:07:29;16.35;;;5.35;;
13366;SDS011;6752;52.612;13.630;2022-09-17T03:12:34;13.45;;;5.22;;
13366;SDS011;6752;52.612;13.630;2022-09-17T03:17:36;12.40;;;5.00;;
13366;SDS011;6752;52.612;13.630;2022-09-17T03:22:42;12.45;;;4.60;;
13366;SDS011;6752;52.612;13.630;2022-09-17T03:27:44;10.05;;;3.92;;
13366;SDS011;6752;52.612;13.630;2022-09-17T03:32:50;9.40;;;4.40;;
13366;SDS011;6752;52.612;13.630;2022-09-17T03:37:52;13.43;;;5.37;;
13366;SDS011;6752;52.612;13.630;2022-09-17T03:42:57;11.45;;;5.55;;
13366;SDS011;6752;52.612;13.630;2022-09-17T03:48:00;16.08;;;5.40;;
13366;SDS011;6752;52.612;13.630;2022-09-17T03:53:05;16.30;;;6.30;;
13366;SDS011;6752;52.612;13.630;2022-09-17T03:58:08;18.37;;;6.62;;
13366;SDS011;6752;52.612;13.630;2022-09-17T04:03:10;16.60;;;6.93;;
13366;SDS011;6752;52.612;13.630;2022-09-17T04:08:15;24.37;;;6.22;;
13366;SDS011;6752;52.612;13.630;2022-09-17T04:13:19;18.83;;;5.30;;
13366;SDS011;6752;52.612;13.630;2022-09-17T04:18:24;14.45;;;4.97;;
13366;SDS011;6752;52.612;13.630;2022-09-17T04:23:29;14.75;;;5.05;;
13366;SDS011;6752;52.612;13.630;2022-09-17T04:28:32;15.77;;;4.47;;
13366;SDS011;6752;52.612;13.630;2022-09-17T04:33:37;11.32;;;4.72;;
13366;SDS011;6752;52.612;13.630;2022-09-17T04:38:40;15.18;;;4.78;;
13366;SDS011;6752;52.612;13.630;2022-09-17T04:43:45;10.57;;;4.32;;
13366;SDS011;6752;52.612;13.630;2022-09-17T04:48:47;14.48;;;4.22;;
13366;SDS011;6752;52.612;13.630;2022-09-17T04:53:52;18.95;;;4.78;;
13366;SDS011;6752;52.612;13.630;2022-09-17T04:58:58;15.02;;;4.75;;
13366;SDS011;6752;52.612;13.630;2022-09-17T05:04:01;10.80;;;4.15;;
13366;SDS011;6752;52.612;13.630;2022-09-17T05:09:06;15.68;;;4.75;;
13366;SDS011;6752;52.612;13.630;2022-09-17T05:14:09;15.88;;;5.30;;
13366;SDS011;6752;52.612;13.630;2022-09-17T05:19:11;19.12;;;5.60;;
13366;SDS011;6752;52.612;13.630;2022-09-17T05:24:17;18.02;;;4.87;;
13366;SDS011;6752;52.612;13.630;2022-09-17T05:29:19;17.62;;;5.22;;
13366;SDS011;6752;52.612;13.630;2022-09-17T05:34:24;18.00;;;5.28;;
13366;SDS011;6752;52.612;13.630;2022-09-17T05:39:27;15.57;;;4.80;;
13366;SDS011;6752;52.612;13.630;2022-09-17T05:44:33;15.55;;;4.97;;
13366;SDS011;6752;52.612;13.630;2022-09-17T05:49:35;16.65;;;5.97;;
13366;SDS011;6752;52.612;13.630;2022-09-17T05:54:38;22.37;;;5.12;;
13366;SDS011;6752;52.612;13.630;2022-09-17T05:59:40;15.73;;;5.12;;
13366;SDS011;6752;52.612;13.630;2022-09-17T06:04:46;23.75;;;5.25;;
13366;SDS011;6752;52.612;13.630;2022-09-17T06:09:48;22.05;;;5.53;;
13366;SDS011;6752;52.612;13.630;2022-09-17T06:14:50;21.85;;;5.12;;
13366;SDS011;6752;52.612;13.630;2022-09-17T06:19:53;18.48;;;5.62;;
13366;SDS011;6752;52.612;13.630;2022-09-17T06:24:59;26.40;;;6.18;;
13366;SDS011;6752;52.612;13.630;2022-09-17T06:30:01;23.58;;;6.03;;
13366;SDS011;6752;52.612;13.630;2022-09-17T06:35:06;22.65;;;6.03;;
13366;SDS011;6752;52.612;13.630;2022-09-17T06:40:08;33.45;;;6.62;;
13366;SDS011;6752;52.612;13.630;2022-09-17T06:45:17;25.67;;;6.13;;
13366;SDS011;6752;52.612;13.630;2022-09-17T06:55:21;23.08;;;5.50;;
13366;SDS011;6752;52.612;13.630;2022-09-17T07:00:24;17.42;;;5.90;;
13366;SDS011;6752;52.612;13.630;2022-09-17T07:05:29;17.77;;;5.32;;
13366;SDS011;6752;52.612;13.630;2022-09-17T07:10:31;26.90;;;6.62;;
13366;SDS011;6752;52.612;13.630;2022-09-17T07:15:34;20.55;;;5.30;;
13366;SDS011;6752;52.612;13.630;2022-09-17T07:20:36;21.90;;;6.40;;
13366;SDS011;6752;52.612;13.630;2022-09-17T07:25:41;18.80;;;5.93;;
13366;SDS011;6752;52.612;13.630;2022-09-17T07:30:44;27.67;;;6.32;;
13366;SDS011;6752;52.612;13.630;2022-09-17T07:35:55;20.42;;;6.03;;
13366;SDS011;6752;52.612;13.630;2022-09-17T07:41:04;29.23;;;6.73;;
13366;SDS011;6752;52.612;13.630;2022-09-17T07:46:06;26.60;;;5.60;;
13366;SDS011;6752;52.612;13.630;2022-09-17T07:51:13;24.58;;;5.87;;
13366;SDS011;6752;52.612;13.630;2022-09-17T07:56:10;24.73;;;6.35;;
13366;SDS011;6752;52.612;13.630;2022-09-17T08:01:13;19.70;;;5.90;;
13366;SDS011;6752;52.612;13.630;2022-09-17T08:06:16;25.42;;;5.78;;
13366;SDS011;6752;52.612;13.630;2022-09-17T08:16:20;23.20;;;5.03;;
13366;SDS011;6752;52.612;13.630;2022-09-17T08:26:23;21.05;;;5.55;;
13366;SDS011;6752;52.612;13.630;2022-09-17T08:31:26;20.75;;;4.95;;
13366;SDS011;6752;52.612;13.630;2022-09-17T08:36:28;24.52;;;6.20;;
13366;SDS011;6752;52.612;13.630;2022-09-17T08:41:35;18.25;;;4.47;;
13366;SDS011;6752;52.612;13.630;2022-09-17T08:46:39;18.35;;;5.40;;
13366;SDS011;6752;52.612;13.630;2022-09-17T08:51:47;20.77;;;4.78;;
13366;SDS011;6752;52.612;13.630;2022-09-17T08:56:46;18.75;;;4.68;;
13366;SDS011;6752;52.612;13.630;2022-09-17T09:01:56;16.67;;;4.75;;
13366;SDS011;6752;52.612;13.630;2022-09-17T09:12:03;16.45;;;3.65;;
13366;SDS011;6752;52.612;13.630;2022-09-17T09:17:05;19.23;;;4.30;;
13366;SDS011;6752;52.612;13.630;2022-09-17T09:22:14;13.90;;;3.45;;
13366;SDS011;6752;52.612;13.630;2022-09-17T09:27:39;18.42;;;4.07;;
13366;SDS011;6752;52.612;13.630;2022-09-17T09:32:45;15.55;;;3.17;;
13366;SDS011;6752;52.612;13.630;2022-09-17T09:43:42;18.52;;;3.47;;
13366;SDS011;6752;52.612;13.630;2022-09-17T10:04:34;21.30;;;4.00;;
13366;SDS011;6752;52.612;13.630;2022-09-17T10:09:37;17.42;;;3.30;;
13366;SDS011;6752;52.612;13.630;2022-09-17T10:14:43;15.95;;;3.75;;
13366;SDS011;6752;52.612;13.630;2022-09-17T10:25:19;14.25;;;3.50;;
13366;SDS011;6752;52.612;13.630;2022-09-17T10:30:25;11.63;;;2.70;;
13366;SDS011;6752;52.612;13.630;2022-09-17T10:35:31;14.05;;;3.03;;
13366;SDS011;6752;52.612;13.630;2022-09-17T10:40:33;15.65;;;3.22;;
13366;SDS011;6752;52.612;13.630;2022-09-17T10:45:39;16.80;;;3.75;;
13366;SDS011;6752;52.612;13.630;2022-09-17T10:50:41;12.40;;;3.47;;
13366;SDS011;6752;52.612;13.630;2022-09-17T10:55:49;13.90;;;2.85;;
13366;SDS011;6752;52.612;13.630;2022-09-17T11:01:14;10.25;;;2.30;;
13366;SDS011;6752;52.612;13.630;2022-09-17T11:11:51;9.48;;;2.33;;
13366;SDS011;6752;52.612;13.630;2022-09-17T11:16:59;12.55;;;3.28;;
13366;SDS011;6752;52.612;13.630;2022-09-17T11:22:19;15.48;;;2.45;;
13366;SDS011;6752;52.612;13.630;2022-09-17T11:32:32;19.30;;;3.17;;
13366;SDS011;6752;52.612;13.630;2022-09-17T11:37:35;15.10;;;3.22;;
13366;SDS011;6752;52.612;13.630;2022-09-17T11:42:38;9.18;;;2.35;;
13366;SDS011;6752;52.612;13.630;2022-09-17T11:47:49;13.52;;;2.60;;
13366;SDS011;6752;52.612;13.630;2022-09-17T11:58:09;13.35;;;2.95;;
13366;SDS011;6752;52.612;13.630;2022-09-17T12:03:27;15.45;;;2.87;;
13366;SDS011;6752;52.612;13.630;2022-09-17T12:13:45;11.68;;;2.53;;
13366;SDS011;6752;52.612;13.630;2022-09-17T12:29:10;10.27;;;2.15;;
13366;SDS011;6752;52.612;13.630;2022-09-17T12:44:56;9.30;;;1.70;;
13366;SDS011;6752;52.612;13.630;2022-09-17T12:55:10;8.03;;;0.93;;
13366;SDS011;6752;52.612;13.630;2022-09-17T13:00:12;8.27;;;1.33;;
13366;SDS011;6752;52.612;13.630;2022-09-17T13:10:56;6.45;;;1.62;;
13366;SDS011;6752;52.612;13.630;2022-09-17T13:21:19;9.13;;;1.87;;
13366;SDS011;6752;52.612;13.630;2022-09-17T13:26:34;8.63;;;1.95;;
13366;SDS011;6752;52.612;13.630;2022-09-17T13:36:47;10.13;;;1.62;;
13366;SDS011;6752;52.612;13.630;2022-09-17T13:41:49;9.13;;;2.03;;
13366;SDS011;6752;52.612;13.630;2022-09-17T13:46:51;7.50;;;1.48;;
13366;SDS011;6752;52.612;13.630;2022-09-17T13:51:54;10.73;;;1.70;;
13366;SDS011;6752;52.612;13.630;2022-09-17T13:57:03;7.05;;;1.50;;
13366;SDS011;6752;52.612;13.630;2022-09-17T14:22:56;7.50;;;1.35;;
13366;SDS011;6752;52.612;13.630;2022-09-17T14:28:12;8.20;;;1.47;;
13366;SDS011;6752;52.612;13.630;2022-09-17T14:33:13;7.20;;;1.50;;
13366;SDS011;6752;52.612;13.630;2022-09-17T14:48:53;10.68;;;2.22;;
13366;SDS011;6752;52.612;13.630;2022-09-17T15:09:33;7.32;;;2.08;;
13366;SDS011;6752;52.612;13.630;2022-09-17T15:14:28;6.95;;;1.10;;
13366;SDS011;6752;52.612;13.630;2022-09-17T15:19:38;5.35;;;1.00;;
13366;SDS011;6752;52.612;13.630;2022-09-17T15:25:04;8.35;;;0.95;;
13366;SDS011;6752;52.612;13.630;2022-09-17T15:29:53;3.53;;;0.67;;
13366;SDS011;6752;52.612;13.630;2022-09-17T15:40:22;1.90;;;0.73;;
13366;SDS011;6752;52.612;13.630;2022-09-17T15:45:25;3.00;;;0.95;;
13366;SDS011;6752;52.612;13.630;2022-09-17T15:50:21;2.80;;;0.68;;
13366;SDS011;6752;52.612;13.630;2022-09-17T15:55:37;4.47;;;1.02;;
13366;SDS011;6752;52.612;13.630;2022-09-17T16:00:34;4.03;;;0.90;;
13366;SDS011;6752;52.612;13.630;2022-09-17T16:05:43;5.22;;;1.10;;
13366;SDS011;6752;52.612;13.630;2022-09-17T16:10:45;4.30;;;0.90;;
13366;SDS011;6752;52.612;13.630;2022-09-17T16:15:50;3.78;;;1.27;;
13366;SDS011;6752;52.612;13.630;2022-09-17T16:20:53;6.40;;;1.10;;
13366;SDS011;6752;52.612;13.630;2022-09-17T16:25:58;6.80;;;1.42;;
13366;SDS011;6752;52.612;13.630;2022-09-17T16:31:00;5.15;;;1.60;;
13366;SDS011;6752;52.612;13.630;2022-09-17T16:36:02;7.45;;;1.60;;
13366;SDS011;6752;52.612;13.630;2022-09-17T16:41:05;5.70;;;1.33;;
13366;SDS011;6752;52.612;13.630;2022-09-17T16:46:10;4.40;;;1.33;;
13366;SDS011;6752;52.612;13.630;2022-09-17T16:51:13;4.18;;;1.20;;
13366;SDS011;6752;52.612;13.630;2022-09-17T17:01:21;7.63;;;1.50;;
13366;SDS011;6752;52.612;13.630;2022-09-17T17:06:26;7.40;;;1.92;;
13366;SDS011;6752;52.612;13.630;2022-09-17T17:11:31;5.53;;;1.40;;
13366;SDS011;6752;52.612;13.630;2022-09-17T17:16:34;7.78;;;1.60;;
13366;SDS011;6752;52.612;13.630;2022-09-17T17:21:36;5.10;;;1.55;;
13366;SDS011;6752;52.612;13.630;2022-09-17T17:26:41;5.87;;;1.40;;
13366;SDS011;6752;52.612;13.630;2022-09-17T17:31:44;3.78;;;1.35;;
13366;SDS011;6752;52.612;13.630;2022-09-17T17:36:49;6.95;;;2.75;;
13366;SDS011;6752;52.612;13.630;2022-09-17T17:41:52;7.60;;;2.00;;
13366;SDS011;6752;52.612;13.630;2022-09-17T17:46:54;6.43;;;1.95;;
13366;SDS011;6752;52.612;13.630;2022-09-17T17:51:59;7.80;;;1.83;;
13366;SDS011;6752;52.612;13.630;2022-09-17T17:57:02;4.12;;;1.45;;
13366;SDS011;6752;52.612;13.630;2022-09-17T18:02:08;5.68;;;1.58;;
13366;SDS011;6752;52.612;13.630;2022-09-17T18:07:10;6.87;;;2.58;;
13366;SDS011;6752;52.612;13.630;2022-09-17T18:12:12;10.10;;;3.80;;
13366;SDS011;6752;52.612;13.630;2022-09-17T18:17:14;8.40;;;2.12;;
13366;SDS011;6752;52.612;13.630;2022-09-17T18:22:17;7.18;;;1.87;;
13366;SDS011;6752;52.612;13.630;2022-09-17T18:27:19;4.93;;;1.75;;
13366;SDS011;6752;52.612;13.630;2022-09-17T18:32:22;5.57;;;1.80;;
13366;SDS011;6752;52.612;13.630;2022-09-17T18:37:24;8.15;;;2.05;;
13366;SDS011;6752;52.612;13.630;2022-09-17T18:42:27;5.28;;;1.95;;
13366;SDS011;6752;52.612;13.630;2022-09-17T18:47:29;6.93;;;1.98;;
13366;SDS011;6752;52.612;13.630;2022-09-17T18:52:31;6.77;;;2.00;;
13366;SDS011;6752;52.612;13.630;2022-09-17T18:57:34;7.82;;;1.83;;
13366;SDS011;6752;52.612;13.630;2022-09-17T19:02:39;6.25;;;2.30;;
13366;SDS011;6752;52.612;13.630;2022-09-17T19:07:42;7.90;;;2.00;;
13366;SDS011;6752;52.612;13.630;2022-09-17T19:12:44;8.70;;;1.90;;
13366;SDS011;6752;52.612;13.630;2022-09-17T19:17:46;7.50;;;2.03;;
13366;SDS011;6752;52.612;13.630;2022-09-17T19:22:49;4.85;;;1.62;;
13366;SDS011;6752;52.612;13.630;2022-09-17T19:27:51;11.40;;;2.55;;
13366;SDS011;6752;52.612;13.630;2022-09-17T19:32:53;4.62;;;1.62;;
13366;SDS011;6752;52.612;13.630;2022-09-17T19:37:56;8.60;;;2.17;;
13366;SDS011;6752;52.612;13.630;2022-09-17T19:42:58;5.70;;;2.00;;
13366;SDS011;6752;52.612;13.630;2022-09-17T19:48:01;5.10;;;2.00;;
13366;SDS011;6752;52.612;13.630;2022-09-17T19:53:03;6.60;;;2.10;;
13366;SDS011;6752;52.612;13.630;2022-09-17T19:58:05;6.57;;;2.10;;
13366;SDS011;6752;52.612;13.630;2022-09-17T20:03:09;11.57;;;2.25;;
13366;SDS011;6752;52.612;13.630;2022-09-17T20:08:11;6.75;;;2.15;;
13366;SDS011;6752;52.612;13.630;2022-09-17T20:13:16;5.35;;;2.00;;
13366;SDS011;6752;52.612;13.630;2022-09-17T20:18:16;5.70;;;2.20;;
13366;SDS011;6752;52.612;13.630;2022-09-17T20:23:18;5.37;;;2.42;;
13366;SDS011;6752;52.612;13.630;2022-09-17T20:28:21;5.57;;;2.22;;
13366;SDS011;6752;52.612;13.630;2022-09-17T20:33:23;6.82;;;2.50;;
13366;SDS011;6752;52.612;13.630;2022-09-17T20:38:26;7.47;;;2.00;;
13366;SDS011;6752;52.612;13.630;2022-09-17T20:43:31;6.37;;;2.20;;
13366;SDS011;6752;52.612;13.630;2022-09-17T20:48:31;6.70;;;1.65;;
13366;SDS011;6752;52.612;13.630;2022-09-17T20:58:35;8.65;;;2.55;;
13366;SDS011;6752;52.612;13.630;2022-09-17T21:03:38;7.30;;;2.75;;
13366;SDS011;6752;52.612;13.630;2022-09-17T21:08:42;7.12;;;2.47;;
13366;SDS011;6752;52.612;13.630;2022-09-17T21:18:47;11.63;;;2.65;;
13366;SDS011;6752;52.612;13.630;2022-09-17T21:23:49;9.13;;;2.60;;
13366;SDS011;6752;52.612;13.630;2022-09-17T21:28:53;9.77;;;2.97;;
13366;SDS011;6752;52.612;13.630;2022-09-17T21:33:58;9.27;;;2.58;;
13366;SDS011;6752;52.612;13.630;2022-09-17T21:39:02;8.80;;;3.70;;
13366;SDS011;6752;52.612;13.630;2022-09-17T21:44:06;10.77;;;3.80;;
13366;SDS011;6752;52.612;13.630;2022-09-17T21:49:09;9.43;;;3.47;;
13366;SDS011;6752;52.612;13.630;2022-09-17T21:54:12;10.35;;;4.28;;
13366;SDS011;6752;52.612;13.630;2022-09-17T21:59:14;8.23;;;3.60;;
13366;SDS011;6752;52.612;13.630;2022-09-17T22:04:19;13.82;;;4.10;;
13366;SDS011;6752;52.612;13.630;2022-09-17T22:09:24;9.70;;;4.35;;
13366;SDS011;6752;52.612;13.630;2022-09-17T22:14:26;12.02;;;4.07;;
13366;SDS011;6752;52.612;13.630;2022-09-17T22:19:32;13.52;;;4.68;;
13366;SDS011;6752;52.612;13.630;2022-09-17T22:24:37;9.70;;;4.05;;
13366;SDS011;6752;52.612;13.630;2022-09-17T22:29:39;8.63;;;3.80;;
13366;SDS011;6752;52.612;13.630;2022-09-17T22:34:44;9.00;;;3.40;;
13366;SDS011;6752;52.612;13.630;2022-09-17T22:39:47;11.77;;;4.53;;
13366;SDS011;6752;52.612;13.630;2022-09-17T22:44:52;10.90;;;3.95;;
13366;SDS011;6752;52.612;13.630;2022-09-17T22:49:55;12.85;;;4.15;;
13366;SDS011;6752;52.612;13.630;2022-09-17T22:55:00;9.68;;;4.25;;
13366;SDS011;6752;52.612;13.630;2022-09-17T23:00:03;13.07;;;4.60;;
13366;SDS011;6752;52.612;13.630;2022-09-17T23:05:07;14.55;;;5.18;;
13366;SDS011;6752;52.612;13.630;2022-09-17T23:10:10;16.40;;;4.80;;
13366;SDS011;6752;52.612;13.630;2022-09-17T23:15:15;7.62;;;3.90;;
13366;SDS011;6752;52.612;13.630;2022-09-17T23:20:18;10.45;;;4.28;;
13366;SDS011;6752;52.612;13.630;2022-09-17T23:25:20;12.82;;;4.90;;
13366;SDS011;6752;52.612;13.630;2022-09-17T23:30:23;8.07;;;3.83;;
13366;SDS011;6752;52.612;13.630;2022-09-17T23:35:28;11.52;;;4.85;;
13366;SDS011;6752;52.612;13.630;2022-09-17T23:40:31;9.98;;;4.53;;
13366;SDS011;6752;52.612;13.630;2022-09-17T23:45:36;11.75;;;4.10;;
13366;SDS011;6752;52.612;13.630;2022-09-17T23:50:38;8.75;;;4.10;;
13366;SDS011;6752;52.612;13.630;2022-09-17T23:55:47;9.00;;;3.50;;
